createdAt,value
2024-01-14T00:01:23.905Z,4.80
2024-01-14T00:03:51.045Z,4.80
2024-01-14T00:06:18.056Z,4.70
2024-01-14T00:08:44.727Z,4.80
2024-01-14T00:11:11.524Z,4.80
2024-01-14T00:13:38.212Z,4.80
2024-01-14T00:16:05.207Z,4.80
2024-01-14T00:18:31.980Z,4.80
2024-01-14T00:20:58.775Z,4.80
2024-01-14T00:23:25.589Z,4.80
2024-01-14T00:25:52.251Z,4.80
2024-01-14T00:28:18.885Z,4.80
2024-01-14T00:30:45.697Z,4.70
2024-01-14T00:33:12.572Z,4.90
2024-01-14T00:35:42.257Z,4.80
2024-01-14T00:38:10.417Z,4.90
2024-01-14T00:40:38.536Z,4.90
2024-01-14T00:43:05.199Z,5.00
2024-01-14T00:45:32.226Z,5.00
2024-01-14T00:47:59.092Z,5.00
2024-01-14T00:50:25.969Z,5.10
2024-01-14T00:52:52.635Z,5.00
2024-01-14T00:55:19.537Z,5.20
2024-01-14T00:57:46.587Z,5.00
2024-01-14T01:00:13.481Z,5.00
2024-01-14T01:02:40.158Z,5.00
2024-01-14T01:05:07.081Z,5.00
2024-01-14T01:07:33.754Z,5.00
2024-01-14T01:10:00.474Z,5.00
2024-01-14T01:12:27.160Z,5.00
2024-01-14T01:14:53.915Z,5.00
2024-01-14T01:17:20.596Z,4.20
2024-01-14T01:19:47.620Z,5.00
2024-01-14T01:22:14.426Z,5.00
2024-01-14T01:24:41.187Z,5.00
2024-01-14T01:27:08.010Z,5.00
2024-01-14T01:29:34.727Z,5.00
2024-01-14T01:32:07.567Z,5.00
2024-01-14T01:34:35.767Z,5.00
2024-01-14T01:37:03.539Z,5.00
2024-01-14T01:39:30.635Z,5.00
2024-01-14T01:41:57.618Z,5.00
2024-01-14T01:44:25.293Z,4.90
2024-01-14T01:46:52.728Z,4.90
2024-01-14T01:49:19.733Z,6.30
2024-01-14T01:51:51.264Z,3.40
2024-01-14T01:54:20.221Z,4.90
2024-01-14T01:56:47.275Z,4.90
2024-01-14T01:59:14.965Z,4.90
2024-01-14T02:01:42.319Z,4.90
2024-01-14T02:04:09.280Z,4.90
2024-01-14T02:06:38.846Z,4.90
2024-01-14T02:09:08.537Z,4.80
2024-01-14T02:11:38.346Z,4.80
2024-01-14T02:14:06.246Z,4.80
2024-01-14T02:16:33.039Z,4.70
2024-01-14T02:18:59.891Z,4.80
2024-01-14T02:21:37.474Z,4.10
2024-01-14T02:24:29.019Z,4.70
2024-01-14T02:26:55.845Z,4.60
2024-01-14T02:29:22.953Z,4.60
2024-01-14T02:31:49.690Z,4.60
2024-01-14T02:34:17.123Z,4.60
2024-01-14T02:36:43.894Z,4.60
2024-01-14T02:39:10.725Z,4.70
2024-01-14T02:41:37.459Z,4.60
2024-01-14T02:44:04.428Z,4.50
2024-01-14T02:46:31.305Z,4.50
2024-01-14T02:48:58.652Z,4.50
2024-01-14T02:51:25.744Z,4.50
2024-01-14T02:53:52.570Z,4.50
2024-01-14T02:56:19.686Z,4.50
2024-01-14T02:58:46.794Z,4.50
2024-01-14T03:01:13.928Z,4.40
2024-01-14T03:03:40.777Z,4.40
2024-01-14T03:06:08.585Z,4.30
2024-01-14T03:08:35.774Z,4.30
2024-01-14T03:11:02.411Z,4.30
2024-01-14T03:13:29.434Z,4.40
2024-01-14T03:15:56.214Z,4.30
2024-01-14T03:18:23.114Z,4.30
2024-01-14T03:20:49.952Z,4.30
2024-01-14T03:23:16.620Z,4.30
2024-01-14T03:25:43.273Z,4.20
2024-01-14T03:28:10.208Z,4.30
2024-01-14T03:30:37.019Z,4.30
2024-01-14T03:33:04.101Z,4.30
2024-01-14T03:35:30.908Z,4.20
2024-01-14T03:37:57.537Z,4.30
2024-01-14T03:40:24.256Z,4.30
2024-01-14T03:42:50.967Z,4.20
2024-01-14T03:45:18.179Z,4.30
2024-01-14T03:47:44.933Z,4.20
2024-01-14T03:50:11.764Z,4.30
2024-01-14T03:52:38.430Z,4.30
2024-01-14T03:55:06.154Z,4.30
2024-01-14T03:57:32.920Z,4.30
2024-01-14T03:59:59.779Z,4.30
2024-01-14T04:02:26.554Z,4.40
2024-01-14T04:04:53.847Z,4.50
2024-01-14T04:07:20.759Z,4.40
2024-01-14T04:09:47.399Z,4.50
2024-01-14T04:12:14.124Z,4.60
2024-01-14T04:14:40.889Z,4.60
2024-01-14T04:17:07.630Z,4.60
2024-01-14T04:19:34.522Z,4.60
2024-01-14T04:22:01.177Z,4.60
2024-01-14T04:24:27.901Z,4.60
2024-01-14T04:26:54.666Z,4.50
2024-01-14T04:29:21.347Z,4.70
2024-01-14T04:31:48.028Z,4.40
2024-01-14T04:34:14.804Z,4.50
2024-01-14T04:36:41.541Z,4.30
2024-01-14T04:39:09.020Z,4.30
2024-01-14T04:41:35.896Z,4.40
2024-01-14T04:44:03.172Z,4.50
2024-01-14T04:46:29.872Z,4.30
2024-01-14T04:48:56.836Z,4.30
2024-01-14T04:51:23.791Z,4.30
2024-01-14T04:53:50.555Z,4.30
2024-01-14T04:56:17.356Z,4.30
2024-01-14T04:58:44.060Z,4.30
2024-01-14T05:01:10.814Z,4.40
2024-01-14T05:03:37.728Z,4.30
2024-01-14T05:06:05.081Z,4.30
2024-01-14T05:08:32.334Z,4.30
2024-01-14T05:10:59.727Z,4.20
2024-01-14T05:13:26.410Z,4.20
2024-01-14T05:15:53.112Z,4.30
2024-01-14T05:18:19.977Z,4.30
2024-01-14T05:20:46.784Z,4.40
2024-01-14T05:23:13.484Z,4.50
2024-01-14T05:25:40.199Z,4.40
2024-01-14T05:28:07.286Z,4.40
2024-01-14T05:30:34.080Z,4.50
2024-01-14T05:33:01.001Z,4.50
2024-01-14T05:35:27.896Z,4.50
2024-01-14T05:37:54.589Z,4.50
2024-01-14T05:40:21.226Z,4.40
2024-01-14T05:42:47.870Z,4.60
2024-01-14T05:45:14.681Z,4.60
2024-01-14T05:47:41.498Z,7.20
2024-01-14T05:50:09.395Z,4.50
2024-01-14T05:52:36.185Z,4.50
2024-01-14T05:55:04.003Z,4.50
2024-01-14T05:57:31.686Z,4.40
2024-01-14T05:59:58.523Z,4.50
2024-01-14T06:02:25.319Z,4.40
2024-01-14T06:04:52.080Z,4.40
2024-01-14T06:07:18.849Z,4.40
2024-01-14T06:09:45.604Z,4.50
2024-01-14T06:12:12.419Z,4.40
2024-01-14T06:14:39.144Z,4.50
2024-01-14T06:17:05.940Z,4.50
2024-01-14T06:19:32.852Z,4.50
2024-01-14T06:22:01.737Z,4.50
2024-01-14T06:24:28.504Z,4.50
2024-01-14T06:26:57.031Z,4.50
2024-01-14T06:29:24.148Z,4.40
2024-01-14T06:31:50.922Z,4.50
2024-01-14T06:34:17.741Z,4.50
2024-01-14T06:36:44.516Z,4.50
2024-01-14T06:39:11.184Z,4.60
2024-01-14T06:41:38.150Z,4.50
2024-01-14T06:44:04.875Z,4.50
2024-01-14T06:46:31.554Z,4.60
2024-01-14T06:48:58.327Z,4.50
2024-01-14T06:51:25.170Z,4.50
2024-01-14T06:53:51.934Z,4.50
2024-01-14T06:56:19.298Z,4.50
2024-01-14T06:58:50.543Z,4.50
2024-01-14T07:01:17.635Z,4.50
2024-01-14T07:03:44.518Z,4.60
2024-01-14T07:06:11.543Z,4.60
2024-01-14T07:08:38.440Z,4.50
2024-01-14T07:11:06.659Z,4.50
2024-01-14T07:13:33.482Z,4.50
2024-01-14T07:16:00.337Z,4.50
2024-01-14T07:18:27.317Z,4.60
2024-01-14T07:20:54.174Z,4.50
2024-01-14T07:23:42.588Z,4.60
2024-01-14T07:26:20.021Z,4.50
2024-01-14T07:28:48.504Z,4.50
2024-01-14T07:31:22.056Z,4.70
2024-01-14T07:33:52.710Z,4.60
2024-01-14T07:36:20.634Z,4.60
2024-01-14T07:38:49.032Z,4.60
2024-01-14T07:41:16.718Z,4.50
2024-01-14T07:43:44.840Z,4.60
2024-01-14T07:46:12.533Z,4.60
2024-01-14T07:48:39.861Z,5.50
2024-01-14T07:51:06.729Z,4.60
2024-01-14T07:53:33.401Z,4.70
2024-01-14T07:56:00.297Z,4.60
2024-01-14T07:58:27.038Z,4.60
2024-01-14T08:01:01.354Z,4.70
2024-01-14T08:03:31.822Z,4.60
2024-01-14T08:05:59.662Z,4.70
2024-01-14T08:08:26.467Z,4.80
2024-01-14T08:10:53.864Z,4.70
2024-01-14T08:13:21.306Z,4.70
2024-01-14T08:15:57.357Z,4.60
2024-01-14T08:18:29.333Z,4.60
2024-01-14T08:20:56.257Z,4.70
2024-01-14T08:23:23.056Z,4.60
2024-01-14T08:25:49.878Z,4.70
2024-01-14T08:28:16.621Z,4.80
2024-01-14T08:30:43.407Z,4.70
2024-01-14T08:33:10.391Z,4.70
2024-01-14T08:35:37.212Z,4.60
2024-01-14T08:38:04.056Z,4.50
2024-01-14T08:40:30.760Z,4.50
2024-01-14T08:42:57.411Z,4.60
2024-01-14T08:45:24.137Z,4.60
2024-01-14T08:47:51.132Z,4.60
2024-01-14T08:50:19.876Z,4.60
2024-01-14T08:52:46.597Z,4.60
2024-01-14T08:55:14.503Z,4.50
2024-01-14T08:57:41.653Z,4.50
2024-01-14T09:00:10.378Z,4.50
2024-01-14T09:02:37.315Z,4.30
2024-01-14T09:05:04.302Z,4.30
2024-01-14T09:07:32.178Z,4.40
2024-01-14T09:10:00.368Z,4.60
2024-01-14T09:12:27.094Z,4.50
2024-01-14T09:14:53.854Z,4.50
2024-01-14T09:17:21.020Z,4.50
2024-01-14T09:19:47.857Z,4.50
2024-01-14T09:22:14.646Z,4.60
2024-01-14T09:24:46.577Z,4.70
2024-01-14T09:27:14.537Z,4.70
2024-01-14T09:29:41.491Z,4.60
2024-01-14T09:32:08.225Z,4.70
2024-01-14T09:34:35.192Z,4.50
2024-01-14T09:37:02.002Z,4.70
2024-01-14T09:39:28.685Z,4.70
2024-01-14T09:42:14.123Z,4.70
2024-01-14T09:44:41.951Z,4.60
2024-01-14T09:47:12.429Z,4.60
2024-01-14T09:49:39.664Z,4.80
2024-01-14T09:52:08.112Z,4.70
2024-01-14T09:54:34.994Z,4.60
2024-01-14T09:57:10.506Z,4.60
2024-01-14T09:59:38.939Z,4.50
2024-01-14T10:02:06.960Z,4.70
2024-01-14T10:04:33.710Z,5.70
2024-01-14T10:07:00.720Z,6.50
2024-01-14T10:09:27.648Z,4.50
2024-01-14T10:11:54.361Z,4.50
2024-01-14T10:14:26.407Z,4.40
2024-01-14T10:16:55.574Z,4.50
2024-01-14T10:19:25.975Z,4.40
2024-01-14T10:22:13.458Z,4.50
2024-01-14T10:24:41.070Z,4.70
2024-01-14T10:27:08.284Z,4.50
2024-01-14T10:29:35.044Z,4.90
2024-01-14T10:32:01.788Z,4.70
2024-01-14T10:34:30.198Z,4.70
2024-01-14T10:37:01.772Z,4.80
2024-01-14T10:39:32.272Z,4.80
2024-01-14T10:41:59.878Z,4.70
2024-01-14T10:44:26.604Z,4.60
2024-01-14T10:46:54.871Z,4.60
2024-01-14T10:49:28.348Z,4.60
2024-01-14T10:52:02.659Z,4.70
2024-01-14T10:54:40.250Z,4.70
2024-01-14T10:57:18.544Z,4.80
2024-01-14T10:59:45.829Z,4.80
2024-01-14T11:02:20.614Z,4.80
2024-01-14T11:04:48.859Z,4.70
2024-01-14T11:07:15.814Z,4.70
2024-01-14T11:09:43.363Z,4.70
2024-01-14T11:12:29.944Z,4.60
2024-01-14T11:15:17.090Z,4.60
2024-01-14T11:18:11.699Z,4.50
2024-01-14T11:20:54.682Z,4.50
2024-01-14T11:23:33.485Z,4.60
2024-01-14T11:26:00.397Z,4.70
2024-01-14T11:28:28.539Z,4.70
2024-01-14T11:31:01.268Z,4.80
2024-01-14T11:33:33.028Z,4.70
2024-01-14T11:36:03.526Z,4.80
2024-01-14T11:38:34.972Z,4.80
2024-01-14T11:41:25.173Z,4.70
2024-01-14T11:43:57.203Z,4.70
2024-01-14T11:46:36.852Z,4.60
2024-01-14T11:49:10.327Z,4.70
2024-01-14T11:51:55.580Z,4.80
2024-01-14T11:54:23.655Z,4.70
2024-01-14T11:56:50.697Z,4.70
2024-01-14T11:59:30.180Z,4.80
2024-01-14T12:02:16.142Z,4.70
2024-01-14T12:04:43.224Z,4.80
2024-01-14T12:07:10.249Z,4.70
2024-01-14T12:09:37.525Z,4.80
2024-01-14T12:12:07.787Z,5.00
2024-01-14T12:14:38.699Z,4.90
2024-01-14T12:17:11.847Z,5.00
2024-01-14T12:19:38.671Z,5.00
2024-01-14T12:22:06.268Z,5.00
2024-01-14T12:24:33.270Z,5.00
2024-01-14T12:27:00.525Z,4.90
2024-01-14T12:29:31.462Z,4.90
2024-01-14T12:31:59.196Z,5.00
2024-01-14T12:34:26.055Z,5.70
2024-01-14T12:36:54.512Z,5.60
2024-01-14T12:39:22.216Z,7.40
2024-01-14T12:41:54.250Z,5.10
2024-01-14T12:44:28.771Z,5.10
2024-01-14T12:47:06.292Z,5.00
2024-01-14T12:49:33.642Z,5.00
2024-01-14T12:52:01.138Z,5.00
2024-01-14T12:54:28.212Z,5.00
2024-01-14T12:57:19.949Z,5.10
2024-01-14T12:59:50.327Z,5.10
2024-01-14T13:02:17.475Z,5.10
2024-01-14T13:04:44.347Z,5.10
2024-01-14T13:07:13.222Z,5.10
2024-01-14T13:09:41.497Z,5.30
2024-01-14T13:12:08.611Z,5.20
2024-01-14T13:14:35.356Z,5.20
2024-01-14T13:17:02.822Z,5.30
2024-01-14T13:19:29.897Z,5.10
2024-01-14T13:21:56.645Z,5.20
2024-01-14T13:24:23.460Z,5.30
2024-01-14T13:26:50.174Z,5.00
2024-01-14T13:29:17.059Z,5.10
2024-01-14T13:31:44.145Z,5.40
2024-01-14T13:34:11.078Z,5.10
2024-01-14T13:36:38.032Z,5.10
2024-01-14T13:39:06.049Z,5.10
2024-01-14T13:41:33.685Z,5.10
2024-01-14T13:44:12.106Z,5.00
2024-01-14T13:46:45.072Z,5.10
2024-01-14T13:49:12.055Z,5.00
2024-01-14T13:51:41.922Z,5.40
2024-01-14T13:54:13.501Z,5.00
2024-01-14T13:56:42.600Z,7.20
2024-01-14T13:59:10.389Z,5.00
2024-01-14T14:01:38.305Z,5.10
2024-01-14T14:04:06.068Z,5.10
2024-01-14T14:06:36.847Z,5.10
2024-01-14T14:09:04.667Z,5.10
2024-01-14T14:11:31.479Z,5.10
2024-01-14T14:14:00.631Z,5.10
2024-01-14T14:16:36.349Z,5.10
2024-01-14T14:19:07.871Z,5.10
2024-01-14T14:21:45.650Z,5.30
2024-01-14T14:24:21.568Z,5.00
2024-01-14T14:26:48.400Z,4.80
2024-01-14T14:29:15.124Z,4.80
2024-01-14T14:31:49.093Z,4.80
2024-01-14T14:34:19.674Z,4.70
2024-01-14T14:36:47.568Z,4.60
2024-01-14T14:39:14.590Z,4.60
2024-01-14T14:41:42.017Z,4.60
2024-01-14T14:44:10.901Z,4.60
2024-01-14T14:46:38.454Z,4.60
2024-01-14T14:49:05.609Z,4.60
2024-01-14T14:51:38.312Z,4.50
2024-01-14T14:54:07.859Z,4.50
2024-01-14T14:56:34.599Z,6.00
2024-01-14T14:59:01.512Z,4.50
2024-01-14T15:01:36.880Z,4.30
2024-01-14T15:04:09.323Z,4.30
2024-01-14T15:06:36.223Z,2.80
2024-01-14T15:09:04.715Z,4.00
2024-01-14T15:11:37.544Z,4.10
2024-01-14T15:14:05.892Z,4.00
2024-01-14T15:16:32.668Z,4.00
2024-01-14T15:18:59.471Z,4.00
2024-01-14T15:21:26.379Z,4.10
2024-01-14T15:23:53.348Z,4.20
2024-01-14T15:26:20.010Z,4.30
2024-01-14T15:28:46.633Z,4.20
2024-01-14T15:31:13.889Z,4.10
2024-01-14T15:33:41.137Z,4.10
2024-01-14T15:36:10.162Z,4.10
2024-01-14T15:38:37.291Z,4.20
2024-01-14T15:41:07.972Z,4.30
2024-01-14T15:43:35.670Z,4.40
2024-01-14T15:46:02.628Z,4.40
2024-01-14T15:48:30.150Z,4.30
2024-01-14T15:51:03.977Z,4.30
2024-01-14T15:53:32.902Z,4.40
2024-01-14T15:55:59.728Z,4.30
2024-01-14T15:58:26.604Z,4.30
2024-01-14T16:01:03.207Z,4.20
2024-01-14T16:03:36.425Z,4.20
2024-01-14T16:06:03.407Z,4.20
2024-01-14T16:08:31.618Z,4.10
2024-01-14T16:11:05.025Z,4.30
2024-01-14T16:13:34.352Z,4.30
2024-01-14T16:16:01.685Z,4.10
2024-01-14T16:18:28.548Z,4.10
2024-01-14T16:21:03.005Z,4.10
2024-01-14T16:23:33.674Z,4.20
2024-01-14T16:26:01.180Z,4.40
2024-01-14T16:28:27.910Z,4.40
2024-01-14T16:31:05.281Z,4.40
2024-01-14T16:33:38.660Z,4.20
2024-01-14T16:36:06.011Z,4.20
2024-01-14T16:38:32.840Z,4.20
2024-01-14T16:41:04.093Z,4.30
2024-01-14T16:43:33.099Z,4.20
2024-01-14T16:45:59.938Z,4.10
2024-01-14T16:48:26.849Z,4.30
2024-01-14T16:51:02.762Z,4.20
2024-01-14T16:53:35.960Z,4.20
2024-01-14T16:56:03.697Z,4.20
2024-01-14T16:58:31.484Z,4.00
2024-01-14T17:01:12.194Z,4.20
2024-01-14T17:03:44.706Z,4.10
2024-01-14T17:06:15.209Z,4.10
2024-01-14T17:08:46.561Z,4.00
2024-01-14T17:11:15.061Z,4.00
2024-01-14T17:13:42.168Z,4.00
2024-01-14T17:16:18.263Z,4.90
2024-01-14T17:18:45.215Z,5.30
2024-01-14T17:21:12.078Z,4.90
2024-01-14T17:23:38.761Z,4.70
2024-01-14T17:26:09.470Z,4.40
2024-01-14T17:28:42.701Z,4.30
2024-01-14T17:31:17.469Z,4.30
2024-01-14T17:33:46.060Z,4.30
2024-01-14T17:36:14.619Z,3.10
2024-01-14T17:38:42.388Z,4.30
2024-01-14T17:41:10.565Z,4.30
2024-01-14T17:43:38.622Z,4.30
2024-01-14T17:46:08.558Z,4.10
2024-01-14T17:48:38.096Z,4.10
2024-01-14T17:51:05.841Z,4.00
2024-01-14T17:53:33.069Z,4.00
2024-01-14T17:56:00.174Z,4.00
2024-01-14T17:58:26.948Z,4.00
2024-01-14T18:00:53.947Z,4.10
2024-01-14T18:03:21.079Z,4.10
2024-01-14T18:05:48.529Z,4.00
2024-01-14T18:08:15.644Z,4.20
2024-01-14T18:10:46.821Z,4.20
2024-01-14T18:13:17.315Z,4.00
2024-01-14T18:15:45.591Z,4.10
2024-01-14T18:18:14.051Z,4.00
2024-01-14T18:20:41.423Z,4.10
2024-01-14T18:23:12.751Z,4.00
2024-01-14T18:25:45.555Z,4.00
2024-01-14T18:28:14.267Z,3.90
2024-01-14T18:30:41.509Z,3.90
2024-01-14T18:33:11.762Z,4.00
2024-01-14T18:35:42.944Z,3.90
2024-01-14T18:38:11.524Z,4.00
2024-01-14T18:40:38.484Z,4.10
2024-01-14T18:43:06.592Z,4.10
2024-01-14T18:45:33.538Z,4.10
2024-01-14T18:48:00.793Z,4.10
2024-01-14T18:50:28.377Z,4.10
2024-01-14T18:52:57.039Z,4.00
2024-01-14T18:55:24.627Z,4.00
2024-01-14T18:57:51.474Z,4.00
2024-01-14T19:00:18.394Z,3.90
2024-01-14T19:02:48.161Z,3.90
2024-01-14T19:05:15.533Z,4.00
2024-01-14T19:07:42.408Z,3.90
2024-01-14T19:10:09.988Z,3.80
2024-01-14T19:12:37.479Z,3.80
2024-01-14T19:15:05.537Z,3.80
2024-01-14T19:17:32.593Z,3.90
2024-01-14T19:20:00.311Z,3.80
2024-01-14T19:22:27.254Z,3.80
2024-01-14T19:24:55.009Z,3.80
2024-01-14T19:27:22.191Z,3.90
2024-01-14T19:29:48.988Z,3.90
2024-01-14T19:32:15.726Z,4.00
2024-01-14T19:34:45.567Z,4.00
2024-01-14T19:37:12.745Z,6.20
2024-01-14T19:39:43.399Z,5.20
2024-01-14T19:42:11.632Z,3.80
2024-01-14T19:44:39.068Z,3.80
2024-01-14T19:47:05.918Z,3.80
2024-01-14T19:49:32.766Z,3.80
2024-01-14T19:51:59.594Z,3.70
2024-01-14T19:54:26.451Z,3.70
2024-01-14T19:56:54.115Z,3.70
2024-01-14T19:59:23.759Z,3.70
2024-01-14T20:01:50.954Z,3.90
2024-01-14T20:04:17.963Z,3.70
2024-01-14T20:06:50.746Z,3.70
2024-01-14T20:09:23.492Z,3.70
2024-01-14T20:11:53.063Z,3.70
2024-01-14T20:14:20.121Z,3.70
2024-01-14T20:16:47.071Z,3.70
2024-01-14T20:19:14.054Z,3.80
2024-01-14T20:21:41.270Z,3.80
2024-01-14T20:24:10.102Z,3.70
2024-01-14T20:26:37.638Z,3.70
2024-01-14T20:29:04.450Z,3.60
2024-01-14T20:31:31.233Z,3.60
2024-01-14T20:33:58.127Z,3.60
2024-01-14T20:36:28.496Z,3.60
2024-01-14T20:38:55.929Z,3.60
2024-01-14T20:41:24.197Z,3.80
2024-01-14T20:43:51.573Z,3.60
2024-01-14T20:46:18.432Z,3.50
2024-01-14T20:48:45.559Z,3.50
2024-01-14T20:51:12.717Z,2.50
2024-01-14T20:53:39.718Z,3.50
2024-01-14T20:56:06.471Z,3.50
2024-01-14T20:58:33.449Z,3.50
2024-01-14T21:01:03.431Z,5.00
2024-01-14T21:03:30.251Z,3.50
2024-01-14T21:05:57.110Z,3.50
2024-01-14T21:08:23.847Z,3.40
2024-01-14T21:10:50.522Z,3.40
2024-01-14T21:13:17.397Z,3.30
2024-01-14T21:15:44.436Z,3.40
2024-01-14T21:18:11.609Z,3.40
2024-01-14T21:20:39.081Z,3.50
2024-01-14T21:23:06.953Z,3.40
2024-01-14T21:25:33.844Z,3.30
2024-01-14T21:28:02.135Z,3.30
2024-01-14T21:30:29.407Z,3.30
2024-01-14T21:32:57.193Z,3.30
2024-01-14T21:35:24.033Z,3.40
2024-01-14T21:37:50.725Z,3.40
2024-01-14T21:40:18.663Z,3.40
2024-01-14T21:42:47.327Z,3.20
2024-01-14T21:45:16.750Z,3.00
2024-01-14T21:47:44.451Z,2.80
2024-01-14T21:50:11.797Z,2.80
2024-01-14T21:52:38.738Z,2.60
2024-01-14T21:55:05.608Z,2.60
2024-01-14T21:57:32.899Z,2.60
2024-01-14T21:59:59.802Z,2.60
2024-01-14T22:02:26.481Z,2.70
2024-01-14T22:04:53.287Z,2.80
2024-01-14T22:07:20.306Z,2.80
2024-01-14T22:09:47.255Z,2.80
2024-01-14T22:12:13.996Z,2.90
2024-01-14T22:14:42.764Z,2.80
2024-01-14T22:17:10.180Z,2.80
2024-01-14T22:19:41.844Z,3.00
2024-01-14T22:22:08.651Z,3.00
2024-01-14T22:24:35.406Z,2.90
2024-01-14T22:27:02.417Z,2.90
2024-01-14T22:29:31.039Z,2.90
2024-01-14T22:31:58.433Z,3.00
2024-01-14T22:34:25.958Z,3.00
2024-01-14T22:36:52.983Z,3.00
2024-01-14T22:39:21.870Z,3.00
2024-01-14T22:41:48.865Z,3.00
2024-01-14T22:44:15.743Z,3.00
2024-01-14T22:46:42.807Z,3.10
2024-01-14T22:49:09.691Z,3.10
2024-01-14T22:51:41.552Z,3.00
2024-01-14T22:54:08.864Z,3.00
2024-01-14T22:56:35.627Z,3.00
2024-01-14T22:59:02.482Z,2.90
2024-01-14T23:01:29.266Z,2.90
2024-01-14T23:03:56.012Z,2.90
2024-01-14T23:06:23.199Z,1.90
2024-01-14T23:08:49.986Z,2.80
2024-01-14T23:11:16.725Z,2.80
2024-01-14T23:13:43.342Z,2.80
2024-01-14T23:16:09.981Z,2.80
2024-01-14T23:18:37.039Z,2.80
2024-01-14T23:21:04.392Z,2.80
2024-01-14T23:23:31.081Z,2.80
2024-01-14T23:25:57.779Z,2.50
2024-01-14T23:28:24.466Z,2.80
2024-01-14T23:30:51.236Z,2.80
2024-01-14T23:33:18.129Z,2.80
2024-01-14T23:35:44.869Z,3.00
2024-01-14T23:38:11.639Z,2.90
2024-01-14T23:40:38.352Z,4.40
2024-01-14T23:43:05.078Z,2.80
2024-01-14T23:45:31.733Z,2.90
2024-01-14T23:47:58.519Z,3.00
2024-01-14T23:50:25.649Z,2.90
2024-01-14T23:52:52.383Z,2.90
2024-01-14T23:55:19.045Z,2.90
2024-01-14T23:57:45.794Z,2.90
